Time;durP1;ratioP1;P1;durP2;ratioP2;P2;SDS_P1;SDS_P2;PMS_P1;PMS_P2;Temp;Humidity;BMP_temperature;BMP_pressure;BME280_temperature;BME280_humidity;BME280_pressure;Samples;Min_cycle;Max_cycle;Signal;HPM_P1;HPM_P2
2023/09/03 00:02:05;;;;;;;4.50;3.28;;;;;;;;;;5030006;28;20051;-66
2023/09/03 00:04:50;;;;;;;7.90;4.10;;;;;;;;;;5005885;28;20041;-71
2023/09/03 00:07:35;;;;;;;5.93;3.25;;;;;;;;;;5019881;28;20030;-67
2023/09/03 00:10:20;;;;;;;4.93;2.70;;;;;;;;;;5002442;28;20068;-66
2023/09/03 00:13:05;;;;;;;12.20;3.95;;;;;;;;;;5000440;28;20814;-65
2023/09/03 00:15:51;;;;;;;8.48;3.70;;;;;;;;;;5005746;28;20041;-65
2023/09/03 00:18:36;;;;;;;6.78;3.47;;;;;;;;;;5005783;28;20053;-67
2023/09/03 00:21:22;;;;;;;5.53;3.40;;;;;;;;;;5015488;28;20041;-63
2023/09/03 00:24:07;;;;;;;7.05;3.47;;;;;;;;;;5001709;28;20037;-66
2023/09/03 00:26:52;;;;;;;4.50;2.80;;;;;;;;;;4998479;28;20849;-66
2023/09/03 00:29:37;;;;;;;8.57;3.78;;;;;;;;;;5031734;28;20091;-66
2023/09/03 00:32:22;;;;;;;6.07;3.03;;;;;;;;;;5028133;28;20029;-67
2023/09/03 00:35:08;;;;;;;6.95;3.17;;;;;;;;;;5026768;28;20046;-69
2023/09/03 00:37:53;;;;;;;5.00;2.65;;;;;;;;;;5033276;28;20042;-65
2023/09/03 00:40:38;;;;;;;6.75;3.40;;;;;;;;;;5033988;28;20044;-62
2023/09/03 00:43:24;;;;;;;5.53;2.67;;;;;;;;;;5002392;28;20496;-67
2023/09/03 00:46:09;;;;;;;4.00;2.65;;;;;;;;;;5006409;28;20034;-71
2023/09/03 00:48:54;;;;;;;8.27;3.40;;;;;;;;;;5029782;28;20033;-69
2023/09/03 00:51:40;;;;;;;6.63;3.13;;;;;;;;;;5001333;28;20057;-67
2023/09/03 00:54:25;;;;;;;4.72;2.70;;;;;;;;;;5015572;28;20535;-68
2023/09/03 00:57:10;;;;;;;4.75;3.10;;;;;;;;;;5004573;28;20048;-63
2023/09/03 00:59:56;;;;;;;6.70;3.28;;;;;;;;;;5004945;28;20029;-66
2023/09/03 01:02:44;;;;;;;4.50;3.10;;;;;;;;;;5004469;28;20038;-68
2023/09/03 01:05:29;;;;;;;8.35;2.92;;;;;;;;;;5000241;28;20030;-67
2023/09/03 01:08:15;;;;;;;4.15;2.47;;;;;;;;;;5004972;28;20392;-70
2023/09/03 01:11:00;;;;;;;7.07;3.38;;;;;;;;;;5035428;28;20061;-69
2023/09/03 01:13:54;;;;;;;9.40;2.92;;;;;;;;;;5004485;28;20040;-69
2023/09/03 01:16:54;;;;;;;5.60;3.28;;;;;;;;;;5002154;28;20041;-77
2023/09/03 01:19:54;;;;;;;5.18;2.55;;;;;;;;;;5038254;28;20034;-66
2023/09/03 01:22:49;;;;;;;5.90;3.38;;;;;;;;;;5032010;28;20046;-68
2023/09/03 01:25:34;;;;;;;5.60;2.75;;;;;;;;;;5005062;28;20485;-68
2023/09/03 01:28:23;;;;;;;6.53;3.40;;;;;;;;;;5034321;28;20030;-67
2023/09/03 01:31:11;;;;;;;7.72;3.78;;;;;;;;;;5034126;28;20041;-68
2023/09/03 01:34:02;;;;;;;5.53;3.08;;;;;;;;;;5017804;28;20036;-68
2023/09/03 01:36:47;;;;;;;3.25;2.60;;;;;;;;;;5009896;28;20242;-63
2023/09/03 01:39:33;;;;;;;6.00;2.85;;;;;;;;;;5009189;28;20659;-72
2023/09/03 01:42:18;;;;;;;6.45;2.67;;;;;;;;;;5037151;28;20033;-72
2023/09/03 01:45:04;;;;;;;6.97;2.95;;;;;;;;;;5005398;28;20491;-72
2023/09/03 01:47:53;;;;;;;5.57;2.55;;;;;;;;;;5037314;28;20026;-72
2023/09/03 01:50:43;;;;;;;5.40;3.00;;;;;;;;;;5020656;28;20037;-72
2023/09/03 01:53:42;;;;;;;6.55;2.90;;;;;;;;;;5006928;28;20575;-65
2023/09/03 01:56:29;;;;;;;4.20;2.90;;;;;;;;;;5020310;28;20231;-77
2023/09/03 01:59:18;;;;;;;4.93;2.60;;;;;;;;;;5031833;28;20037;-79
2023/09/03 02:02:04;;;;;;;4.45;2.60;;;;;;;;;;5015337;28;20033;-76
2023/09/03 02:04:50;;;;;;;5.57;2.75;;;;;;;;;;5022741;28;20102;-73
2023/09/03 02:07:35;;;;;;;6.38;3.08;;;;;;;;;;5036179;28;20034;-75
2023/09/03 02:10:20;;;;;;;8.68;2.78;;;;;;;;;;5014502;28;20033;-73
2023/09/03 02:13:05;;;;;;;7.43;2.70;;;;;;;;;;5007464;28;20109;-64
2023/09/03 02:15:51;;;;;;;9.68;3.00;;;;;;;;;;5003990;28;20042;-71
2023/09/03 02:18:36;;;;;;;5.65;2.97;;;;;;;;;;5036148;28;20034;-74
2023/09/03 02:21:21;;;;;;;4.30;2.53;;;;;;;;;;5005918;28;20105;-68
2023/09/03 02:24:06;;;;;;;4.85;2.85;;;;;;;;;;5006936;28;20037;-70
2023/09/03 02:26:51;;;;;;;5.95;2.65;;;;;;;;;;5003258;28;20017;-70
2023/09/03 02:29:38;;;;;;;7.60;3.42;;;;;;;;;;5003573;28;20038;-69
2023/09/03 02:32:23;;;;;;;4.93;2.60;;;;;;;;;;5017291;28;20054;-65
2023/09/03 02:35:08;;;;;;;6.15;3.00;;;;;;;;;;5031637;28;20034;-65
2023/09/03 02:37:54;;;;;;;5.55;2.70;;;;;;;;;;5006791;28;20044;-65
2023/09/03 02:40:39;;;;;;;7.35;2.22;;;;;;;;;;5022999;28;20029;-65
2023/09/03 02:43:24;;;;;;;5.93;2.95;;;;;;;;;;5007576;28;20029;-65
2023/09/03 02:46:10;;;;;;;4.60;2.40;;;;;;;;;;5008420;28;20127;-64
2023/09/03 02:48:55;;;;;;;9.63;3.42;;;;;;;;;;5008272;28;20049;-74
2023/09/03 02:51:40;;;;;;;5.38;2.65;;;;;;;;;;5030438;28;20025;-72
2023/09/03 02:54:26;;;;;;;7.63;2.92;;;;;;;;;;5007207;28;20122;-72
2023/09/03 02:57:11;;;;;;;6.38;3.15;;;;;;;;;;5004248;28;20093;-72
2023/09/03 02:59:56;;;;;;;5.70;2.80;;;;;;;;;;4995174;28;20062;-72
2023/09/03 03:02:41;;;;;;;7.28;3.08;;;;;;;;;;5004881;28;20125;-74
2023/09/03 03:05:26;;;;;;;5.13;2.55;;;;;;;;;;5006450;28;20026;-73
2023/09/03 03:08:12;;;;;;;8.00;2.78;;;;;;;;;;5032787;28;20366;-66
2023/09/03 03:11:04;;;;;;;7.70;2.53;;;;;;;;;;5029284;28;20109;-65
2023/09/03 03:13:51;;;;;;;5.70;2.80;;;;;;;;;;5027558;28;20477;-65
2023/09/03 03:16:37;;;;;;;5.80;2.55;;;;;;;;;;5005011;28;20049;-65
2023/09/03 03:19:22;;;;;;;4.47;2.70;;;;;;;;;;5007792;28;20034;-66
2023/09/03 03:22:07;;;;;;;5.15;3.15;;;;;;;;;;5003443;28;20161;-67
2023/09/03 03:24:52;;;;;;;5.13;2.88;;;;;;;;;;5004051;28;20531;-67
2023/09/03 03:27:37;;;;;;;9.32;3.50;;;;;;;;;;5003848;28;20120;-75
2023/09/03 03:30:23;;;;;;;6.50;2.90;;;;;;;;;;5026887;28;20084;-79
2023/09/03 03:33:08;;;;;;;5.50;2.58;;;;;;;;;;5004973;28;20085;-78
2023/09/03 03:35:53;;;;;;;4.72;2.90;;;;;;;;;;5019972;28;20041;-77
2023/09/03 03:38:39;;;;;;;4.93;2.85;;;;;;;;;;5021595;28;20030;-77
2023/09/03 03:41:24;;;;;;;4.93;3.10;;;;;;;;;;5021625;28;20025;-70
2023/09/03 03:44:09;;;;;;;7.18;3.00;;;;;;;;;;5008509;28;20480;-74
2023/09/03 03:46:54;;;;;;;3.70;2.72;;;;;;;;;;5015550;28;20029;-72
2023/09/03 03:49:40;;;;;;;7.22;3.28;;;;;;;;;;5008204;28;20025;-71
2023/09/03 03:52:25;;;;;;;5.93;3.20;;;;;;;;;;5035330;28;20029;-71
2023/09/03 03:55:11;;;;;;;9.32;3.15;;;;;;;;;;5007122;28;20157;-73
2023/09/03 03:57:56;;;;;;;7.38;3.03;;;;;;;;;;5004496;28;20091;-77
2023/09/03 04:00:41;;;;;;;7.38;3.63;;;;;;;;;;5031966;28;20057;-74
2023/09/03 04:03:27;;;;;;;8.80;3.00;;;;;;;;;;5000328;28;20544;-73
2023/09/03 04:06:13;;;;;;;6.90;2.58;;;;;;;;;;5008210;28;20150;-75
2023/09/03 04:08:58;;;;;;;4.40;2.72;;;;;;;;;;5020230;28;20057;-74
2023/09/03 04:11:43;;;;;;;6.55;3.00;;;;;;;;;;5034675;28;20036;-73
2023/09/03 04:14:29;;;;;;;4.35;2.50;;;;;;;;;;5004996;28;20026;-73
2023/09/03 04:17:14;;;;;;;9.20;3.17;;;;;;;;;;5033380;28;20048;-74
2023/09/03 04:20:00;;;;;;;4.13;2.80;;;;;;;;;;5007118;28;20028;-71
2023/09/03 04:22:45;;;;;;;7.55;3.38;;;;;;;;;;5001838;28;20492;-65
2023/09/03 04:25:30;;;;;;;6.65;3.28;;;;;;;;;;5027587;28;20064;-65
2023/09/03 04:28:15;;;;;;;9.27;3.30;;;;;;;;;;5031876;28;20040;-63
2023/09/03 04:31:04;;;;;;;5.78;3.28;;;;;;;;;;5008072;28;20040;-63
2023/09/03 04:33:50;;;;;;;5.78;2.88;;;;;;;;;;5002678;28;20075;-65
2023/09/03 04:36:35;;;;;;;8.43;2.92;;;;;;;;;;5032996;28;20033;-64
2023/09/03 04:39:20;;;;;;;6.75;3.47;;;;;;;;;;5004545;28;20040;-75
2023/09/03 04:42:07;;;;;;;4.20;2.75;;;;;;;;;;5003370;28;20105;-71
2023/09/03 04:44:52;;;;;;;9.30;3.08;;;;;;;;;;5004556;28;20042;-73
2023/09/03 04:47:38;;;;;;;8.85;3.25;;;;;;;;;;5031570;28;20041;-73
2023/09/03 04:50:23;;;;;;;5.75;2.47;;;;;;;;;;5007149;28;20045;-80
2023/09/03 04:53:09;;;;;;;4.38;2.95;;;;;;;;;;5014221;28;20086;-78
2023/09/03 04:55:54;;;;;;;6.60;3.30;;;;;;;;;;5007872;28;20050;-78
2023/09/03 04:58:39;;;;;;;5.20;3.40;;;;;;;;;;5016084;28;20117;-71
2023/09/03 05:01:25;;;;;;;4.40;2.95;;;;;;;;;;5005682;28;20108;-72
2023/09/03 05:04:10;;;;;;;7.53;3.47;;;;;;;;;;5006544;28;20480;-72
2023/09/03 05:06:56;;;;;;;5.72;3.75;;;;;;;;;;5004811;28;20036;-73
2023/09/03 05:09:41;;;;;;;4.68;2.67;;;;;;;;;;5007319;28;20430;-72
2023/09/03 05:12:26;;;;;;;4.57;2.90;;;;;;;;;;5033620;28;20037;-75
2023/09/03 05:15:12;;;;;;;7.05;3.05;;;;;;;;;;5015958;28;20499;-68
2023/09/03 05:17:57;;;;;;;4.70;2.53;;;;;;;;;;5000172;28;20046;-66
2023/09/03 05:20:42;;;;;;;5.63;3.08;;;;;;;;;;5005270;28;20042;-67
2023/09/03 05:23:27;;;;;;;6.22;3.08;;;;;;;;;;5006131;28;20049;-67
2023/09/03 05:26:13;;;;;;;6.00;2.97;;;;;;;;;;5005701;28;20069;-68
2023/09/03 05:28:58;;;;;;;6.50;3.00;;;;;;;;;;5004124;28;20088;-69
2023/09/03 05:31:43;;;;;;;6.57;3.63;;;;;;;;;;5002264;28;20025;-67
2023/09/03 05:34:28;;;;;;;5.07;3.28;;;;;;;;;;5002965;28;20033;-64
2023/09/03 05:37:14;;;;;;;4.88;3.17;;;;;;;;;;4997764;28;20034;-69
2023/09/03 05:39:59;;;;;;;5.60;3.08;;;;;;;;;;5032386;28;20034;-69
2023/09/03 05:42:44;;;;;;;6.75;3.33;;;;;;;;;;5002512;28;20069;-70
2023/09/03 05:45:29;;;;;;;4.85;2.78;;;;;;;;;;5004259;28;20018;-68
2023/09/03 05:48:15;;;;;;;4.88;2.80;;;;;;;;;;5027295;28;20024;-68
2023/09/03 05:51:03;;;;;;;5.90;3.47;;;;;;;;;;4999360;28;20156;-69
2023/09/03 05:53:49;;;;;;;5.30;3.00;;;;;;;;;;5005081;28;20049;-66
2023/09/03 05:56:34;;;;;;;6.00;2.80;;;;;;;;;;5002488;28;20336;-63
2023/09/03 05:59:19;;;;;;;7.38;2.80;;;;;;;;;;5031830;28;20031;-63
2023/09/03 06:02:05;;;;;;;7.43;3.50;;;;;;;;;;5018587;28;20030;-63
2023/09/03 06:04:50;;;;;;;6.18;3.55;;;;;;;;;;5002888;28;20485;-64
2023/09/03 06:07:35;;;;;;;4.80;2.83;;;;;;;;;;5019149;28;20034;-62
2023/09/03 06:10:21;;;;;;;6.32;3.30;;;;;;;;;;5027948;28;20040;-83
2023/09/03 06:13:06;;;;;;;5.70;3.58;;;;;;;;;;5003504;28;20069;-71
2023/09/03 06:15:51;;;;;;;7.72;2.90;;;;;;;;;;4999926;28;20390;-72
2023/09/03 06:18:36;;;;;;;6.03;2.97;;;;;;;;;;5029502;28;20037;-70
2023/09/03 06:21:22;;;;;;;5.72;3.40;;;;;;;;;;5004399;28;20034;-69
2023/09/03 06:24:07;;;;;;;5.30;3.00;;;;;;;;;;5025376;28;20029;-73
2023/09/03 06:26:52;;;;;;;6.80;3.53;;;;;;;;;;5015288;28;20121;-72
2023/09/03 06:29:37;;;;;;;7.38;3.53;;;;;;;;;;5002016;28;20386;-66
2023/09/03 06:32:24;;;;;;;7.53;3.42;;;;;;;;;;5033205;28;20061;-71
2023/09/03 06:35:09;;;;;;;6.45;3.70;;;;;;;;;;5000859;28;21479;-69
2023/09/03 06:37:55;;;;;;;5.78;3.47;;;;;;;;;;5005048;28;20029;-73
2023/09/03 06:40:41;;;;;;;7.55;3.17;;;;;;;;;;5010715;28;20037;-72
2023/09/03 06:43:26;;;;;;;7.90;3.20;;;;;;;;;;4999805;28;20025;-72
2023/09/03 06:46:11;;;;;;;4.47;2.67;;;;;;;;;;5011113;28;20032;-71
2023/09/03 06:48:56;;;;;;;3.47;2.50;;;;;;;;;;4990339;28;20536;-78
2023/09/03 06:51:42;;;;;;;3.80;2.25;;;;;;;;;;5006147;28;20136;-60
2023/09/03 06:54:28;;;;;;;9.30;3.63;;;;;;;;;;5030080;28;20108;-61
2023/09/03 06:57:13;;;;;;;8.45;3.25;;;;;;;;;;5007732;28;20034;-63
2023/09/03 06:59:58;;;;;;;9.38;3.13;;;;;;;;;;4994999;28;20468;-70
2023/09/03 07:02:43;;;;;;;5.25;3.42;;;;;;;;;;5011050;28;20030;-67
2023/09/03 07:05:29;;;;;;;5.32;2.97;;;;;;;;;;5004125;28;20173;-67
2023/09/03 07:08:14;;;;;;;4.82;2.80;;;;;;;;;;5003083;28;20473;-72
2023/09/03 07:11:02;;;;;;;6.07;2.88;;;;;;;;;;5001601;28;20014;-76
2023/09/03 07:13:49;;;;;;;6.53;3.30;;;;;;;;;;5005919;28;20038;-74
2023/09/03 07:16:34;;;;;;;6.50;3.47;;;;;;;;;;5026711;28;20045;-75
2023/09/03 07:19:20;;;;;;;8.50;3.33;;;;;;;;;;5034897;28;20049;-73
2023/09/03 07:22:05;;;;;;;6.28;4.10;;;;;;;;;;5008548;28;20053;-75
2023/09/03 07:24:52;;;;;;;7.60;4.03;;;;;;;;;;5004173;28;20029;-64
2023/09/03 07:27:41;;;;;;;7.20;4.03;;;;;;;;;;5031744;28;20026;-63
2023/09/03 07:30:26;;;;;;;10.25;4.95;;;;;;;;;;5003039;28;20439;-63
2023/09/03 07:33:11;;;;;;;7.68;3.65;;;;;;;;;;4996633;28;20030;-65
2023/09/03 07:35:56;;;;;;;6.47;3.80;;;;;;;;;;5026934;28;20480;-65
2023/09/03 07:38:41;;;;;;;7.70;3.75;;;;;;;;;;5003082;28;20042;-64
2023/09/03 07:41:27;;;;;;;7.07;3.70;;;;;;;;;;5006391;28;20033;-63
2023/09/03 07:44:12;;;;;;;7.65;3.50;;;;;;;;;;5035220;28;20425;-68
2023/09/03 07:46:57;;;;;;;7.10;4.18;;;;;;;;;;5007616;28;20026;-69
2023/09/03 07:49:43;;;;;;;9.20;4.47;;;;;;;;;;5006828;28;20133;-70
2023/09/03 07:52:28;;;;;;;5.82;3.97;;;;;;;;;;5008546;28;20448;-70
2023/09/03 07:55:13;;;;;;;8.00;3.67;;;;;;;;;;5008778;28;20632;-69
2023/09/03 07:57:59;;;;;;;7.50;4.00;;;;;;;;;;5001086;28;20037;-72
2023/09/03 08:00:45;;;;;;;7.68;3.67;;;;;;;;;;5030075;28;20465;-70
2023/09/03 08:03:34;;;;;;;7.18;4.07;;;;;;;;;;5002511;28;20084;-64
2023/09/03 08:06:19;;;;;;;8.30;4.72;;;;;;;;;;5034057;28;20026;-62
2023/09/03 08:09:05;;;;;;;7.13;4.18;;;;;;;;;;5020827;28;20049;-63
2023/09/03 08:11:51;;;;;;;9.57;4.88;;;;;;;;;;5005481;28;20029;-63
2023/09/03 08:14:37;;;;;;;8.68;4.43;;;;;;;;;;5034611;28;20034;-63
2023/09/03 08:17:23;;;;;;;8.02;4.68;;;;;;;;;;5018774;28;20037;-64
2023/09/03 08:20:09;;;;;;;10.73;5.15;;;;;;;;;;5023827;28;20101;-65
2023/09/03 08:22:54;;;;;;;9.73;4.53;;;;;;;;;;5028484;28;20171;-65
2023/09/03 08:25:39;;;;;;;7.55;4.28;;;;;;;;;;5004144;28;20036;-63
2023/09/03 08:28:24;;;;;;;6.20;4.10;;;;;;;;;;5022861;28;20060;-64
2023/09/03 08:31:10;;;;;;;9.57;4.57;;;;;;;;;;5016146;28;20041;-64
2023/09/03 08:33:56;;;;;;;6.95;4.50;;;;;;;;;;5004398;28;20528;-64
2023/09/03 08:36:41;;;;;;;7.05;4.85;;;;;;;;;;5005115;28;20490;-62
2023/09/03 08:39:26;;;;;;;5.90;4.32;;;;;;;;;;5029413;28;20021;-66
2023/09/03 08:42:12;;;;;;;7.50;3.90;;;;;;;;;;5006312;28;20962;-68
2023/09/03 08:45:03;;;;;;;5.15;3.50;;;;;;;;;;5022393;28;20033;-69
2023/09/03 08:47:48;;;;;;;7.88;4.53;;;;;;;;;;5006207;28;20505;-69
2023/09/03 08:50:33;;;;;;;8.35;4.00;;;;;;;;;;5006918;28;20025;-68
2023/09/03 08:53:20;;;;;;;5.65;3.70;;;;;;;;;;5002832;28;20088;-68
2023/09/03 08:56:06;;;;;;;6.65;3.97;;;;;;;;;;5016846;28;20531;-70
2023/09/03 08:58:51;;;;;;;11.70;3.88;;;;;;;;;;5004104;28;20034;-69
2023/09/03 09:01:37;;;;;;;5.63;3.10;;;;;;;;;;5006683;28;20034;-71
2023/09/03 09:04:23;;;;;;;6.68;3.45;;;;;;;;;;5005437;28;20038;-69
2023/09/03 09:07:08;;;;;;;7.85;3.63;;;;;;;;;;5016242;28;20025;-73
2023/09/03 09:09:58;;;;;;;5.75;3.33;;;;;;;;;;5006204;28;20030;-71
2023/09/03 09:13:02;;;;;;;4.75;2.92;;;;;;;;;;5005855;28;20034;-71
2023/09/03 09:15:47;;;;;;;4.93;3.35;;;;;;;;;;5012349;28;20054;-74
2023/09/03 09:18:32;;;;;;;6.72;3.25;;;;;;;;;;5035046;28;20061;-73
2023/09/03 09:21:18;;;;;;;5.13;3.30;;;;;;;;;;4988868;28;20050;-70
2023/09/03 09:24:05;;;;;;;5.38;2.85;;;;;;;;;;5024206;28;20433;-71
2023/09/03 09:26:50;;;;;;;6.22;3.42;;;;;;;;;;5003731;28;20037;-70
2023/09/03 09:29:35;;;;;;;4.68;3.17;;;;;;;;;;5028663;28;20037;-70
2023/09/03 09:32:22;;;;;;;4.55;2.63;;;;;;;;;;5004773;28;20499;-68
2023/09/03 09:35:08;;;;;;;3.45;2.10;;;;;;;;;;5021772;28;20521;-66
2023/09/03 09:37:53;;;;;;;4.57;2.90;;;;;;;;;;5008835;28;20145;-67
2023/09/03 09:40:39;;;;;;;5.28;2.72;;;;;;;;;;5032875;28;20113;-63
2023/09/03 09:43:24;;;;;;;5.00;2.67;;;;;;;;;;5008109;28;20030;-64
2023/09/03 09:46:23;;;;;;;3.63;2.67;;;;;;;;;;5031921;28;20488;-65
2023/09/03 09:49:10;;;;;;;5.30;2.47;;;;;;;;;;5038357;28;20030;-65
2023/09/03 09:51:55;;;;;;;3.10;2.00;;;;;;;;;;5008630;28;20033;-64
2023/09/03 09:54:41;;;;;;;3.10;2.08;;;;;;;;;;5005326;28;20054;-64
2023/09/03 09:57:27;;;;;;;3.33;2.00;;;;;;;;;;4998881;28;20524;-64
2023/09/03 10:00:13;;;;;;;3.10;2.15;;;;;;;;;;5002311;28;20038;-67
2023/09/03 10:02:58;;;;;;;3.22;2.08;;;;;;;;;;5032637;28;20026;-64
2023/09/03 10:05:49;;;;;;;4.38;1.98;;;;;;;;;;5019625;28;20052;-65
2023/09/03 10:08:35;;;;;;;3.80;2.05;;;;;;;;;;5022119;28;20073;-69
2023/09/03 10:11:20;;;;;;;4.00;2.03;;;;;;;;;;5017432;28;20029;-71
2023/09/03 10:14:05;;;;;;;3.47;2.20;;;;;;;;;;5033443;28;20038;-79
2023/09/03 10:16:52;;;;;;;3.28;2.13;;;;;;;;;;5007094;28;21308;-73
2023/09/03 10:19:37;;;;;;;3.65;2.10;;;;;;;;;;5014164;28;20034;-73
2023/09/03 10:22:23;;;;;;;3.17;1.80;;;;;;;;;;5011040;28;20032;-74
2023/09/03 10:25:10;;;;;;;2.08;1.63;;;;;;;;;;4998589;28;20048;-79
2023/09/03 10:27:58;;;;;;;7.50;2.38;;;;;;;;;;5019228;28;20026;-72
2023/09/03 10:30:46;;;;;;;2.25;1.45;;;;;;;;;;5003525;28;20025;-72
2023/09/03 10:33:33;;;;;;;5.60;1.85;;;;;;;;;;5008198;28;20033;-64
2023/09/03 10:36:19;;;;;;;2.47;1.17;;;;;;;;;;5005084;28;20045;-67
2023/09/03 10:39:23;;;;;;;4.47;1.80;;;;;;;;;;4999731;28;20050;-66
2023/09/03 10:42:14;;;;;;;2.65;1.70;;;;;;;;;;5008374;28;20095;-69
2023/09/03 10:45:00;;;;;;;2.50;1.60;;;;;;;;;;5000259;28;20492;-69
2023/09/03 10:47:57;;;;;;;1.90;1.70;;;;;;;;;;5008536;28;20124;-69
2023/09/03 10:50:48;;;;;;;1.88;1.60;;;;;;;;;;5028446;28;20125;-70
2023/09/03 10:53:41;;;;;;;3.15;1.67;;;;;;;;;;5027627;28;20109;-67
2023/09/03 10:56:26;;;;;;;1.73;1.48;;;;;;;;;;5009338;28;20038;-67
2023/09/03 10:59:11;;;;;;;2.38;1.77;;;;;;;;;;5001391;28;20037;-67
2023/09/03 11:02:16;;;;;;;6.45;1.90;;;;;;;;;;5004787;28;20499;-68
2023/09/03 11:05:12;;;;;;;2.05;1.48;;;;;;;;;;5005763;28;20021;-69
2023/09/03 11:08:16;;;;;;;3.05;1.25;;;;;;;;;;5038112;28;20260;-64
2023/09/03 11:11:01;;;;;;;5.30;1.67;;;;;;;;;;5017358;28;20026;-62
2023/09/03 11:13:53;;;;;;;4.35;1.60;;;;;;;;;;5016776;28;20469;-69
2023/09/03 11:16:42;;;;;;;3.40;1.20;;;;;;;;;;5015927;28;20042;-70
2023/09/03 11:19:38;;;;;;;2.15;1.40;;;;;;;;;;5005524;28;20168;-69
2023/09/03 11:22:23;;;;;;;1.50;1.30;;;;;;;;;;5033278;28;20080;-71
2023/09/03 11:25:08;;;;;;;2.40;1.40;;;;;;;;;;4997623;28;20022;-70
2023/09/03 11:27:53;;;;;;;2.40;1.35;;;;;;;;;;5016639;28;20497;-72
2023/09/03 11:30:42;;;;;;;2.10;1.48;;;;;;;;;;5009350;28;20026;-71
2023/09/03 11:33:28;;;;;;;1.88;1.40;;;;;;;;;;5007059;28;20410;-71
2023/09/03 11:36:13;;;;;;;2.40;1.27;;;;;;;;;;5002738;28;20034;-71
2023/09/03 11:38:59;;;;;;;2.47;1.27;;;;;;;;;;5008292;28;20033;-69
2023/09/03 11:41:45;;;;;;;1.50;1.40;;;;;;;;;;5003715;28;20081;-71
2023/09/03 11:44:31;;;;;;;2.63;1.13;;;;;;;;;;5018395;28;20088;-74
2023/09/03 11:47:16;;;;;;;1.33;1.23;;;;;;;;;;5000776;28;20116;-68
2023/09/03 11:50:13;;;;;;;2.08;1.38;;;;;;;;;;5006546;28;20301;-67
2023/09/03 11:52:59;;;;;;;5.03;1.25;;;;;;;;;;5000669;28;20022;-69
2023/09/03 11:55:46;;;;;;;2.03;1.17;;;;;;;;;;5003996;28;20494;-68
2023/09/03 11:58:31;;;;;;;1.88;1.40;;;;;;;;;;5022501;28;20034;-71
2023/09/03 12:01:17;;;;;;;2.38;1.50;;;;;;;;;;5017423;28;20034;-75
2023/09/03 12:04:02;;;;;;;5.13;1.73;;;;;;;;;;5017727;28;20029;-71
2023/09/03 12:06:47;;;;;;;3.25;1.50;;;;;;;;;;5009829;28;20040;-72
2023/09/03 12:09:33;;;;;;;4.53;1.75;;;;;;;;;;4989120;28;20041;-72
2023/09/03 12:12:18;;;;;;;2.72;1.50;;;;;;;;;;4994392;28;20022;-71
2023/09/03 12:15:16;;;;;;;4.03;1.60;;;;;;;;;;5003176;28;20030;-70
2023/09/03 12:18:07;;;;;;;2.63;1.40;;;;;;;;;;5004899;28;20042;-71
2023/09/03 12:20:53;;;;;;;3.13;1.52;;;;;;;;;;5029614;28;20026;-72
2023/09/03 12:23:43;;;;;;;1.67;1.30;;;;;;;;;;5010163;28;20385;-75
2023/09/03 12:26:28;;;;;;;1.48;1.38;;;;;;;;;;5027892;28;20052;-74
2023/09/03 12:29:20;;;;;;;2.20;1.55;;;;;;;;;;5007321;28;20035;-74
2023/09/03 12:32:07;;;;;;;2.20;1.40;;;;;;;;;;5016857;28;20045;-75
2023/09/03 12:34:52;;;;;;;3.75;1.52;;;;;;;;;;5010153;28;20034;-74
2023/09/03 12:37:38;;;;;;;2.47;1.30;;;;;;;;;;5007206;28;20045;-76
2023/09/03 12:40:23;;;;;;;2.03;1.65;;;;;;;;;;5023069;28;20482;-72
2023/09/03 12:43:08;;;;;;;3.58;1.83;;;;;;;;;;5013801;28;20033;-72
2023/09/03 12:45:54;;;;;;;2.67;1.80;;;;;;;;;;5016955;28;20113;-73
2023/09/03 12:48:39;;;;;;;2.00;1.40;;;;;;;;;;4996825;28;20033;-74
2023/09/03 12:51:24;;;;;;;11.35;6.78;;;;;;;;;;5001984;28;20034;-73
2023/09/03 12:54:10;;;;;;;3.25;2.28;;;;;;;;;;5019970;28;20658;-72
2023/09/03 12:56:55;;;;;;;3.13;1.95;;;;;;;;;;5030613;28;20116;-73
2023/09/03 12:59:40;;;;;;;5.00;3.28;;;;;;;;;;4998566;28;20034;-71
2023/09/03 13:02:25;;;;;;;3.40;2.10;;;;;;;;;;5008030;28;20084;-70
2023/09/03 13:05:11;;;;;;;2.15;1.45;;;;;;;;;;4994842;28;20083;-69
2023/09/03 13:07:56;;;;;;;2.80;1.70;;;;;;;;;;5025777;28;20033;-70
2023/09/03 13:10:42;;;;;;;2.10;1.67;;;;;;;;;;5002947;28;20128;-69
2023/09/03 13:13:28;;;;;;;1.98;1.30;;;;;;;;;;5018404;28;20034;-70
2023/09/03 13:16:13;;;;;;;3.40;1.90;;;;;;;;;;5008284;28;20026;-73
2023/09/03 13:18:58;;;;;;;1.85;1.30;;;;;;;;;;5008076;28;20535;-69
2023/09/03 13:21:43;;;;;;;3.42;1.98;;;;;;;;;;5019048;28;20067;-70
2023/09/03 13:24:29;;;;;;;2.55;1.60;;;;;;;;;;5009737;28;20045;-68
2023/09/03 13:27:14;;;;;;;16.05;14.25;;;;;;;;;;5010718;28;20438;-68
2023/09/03 13:29:59;;;;;;;3.13;2.72;;;;;;;;;;5018604;28;20014;-70
2023/09/03 13:32:44;;;;;;;12.35;10.73;;;;;;;;;;5035643;28;20026;-72
2023/09/03 13:35:30;;;;;;;42.65;38.55;;;;;;;;;;5009522;28;20029;-75
2023/09/03 13:38:15;;;;;;;59.17;53.20;;;;;;;;;;5007306;28;20038;-75
2023/09/03 13:41:02;;;;;;;18.15;16.20;;;;;;;;;;5015846;28;20030;-75
2023/09/03 13:43:47;;;;;;;8.65;6.57;;;;;;;;;;5010390;28;20049;-76
2023/09/03 13:46:32;;;;;;;4.03;1.92;;;;;;;;;;5006828;28;20074;-76
2023/09/03 13:49:18;;;;;;;25.73;22.45;;;;;;;;;;5010019;28;20465;-74
2023/09/03 13:52:03;;;;;;;11.50;10.27;;;;;;;;;;5017569;28;20030;-75
2023/09/03 13:54:50;;;;;;;22.35;19.70;;;;;;;;;;5011409;28;20054;-74
2023/09/03 13:57:35;;;;;;;13.02;10.10;;;;;;;;;;5010665;28;20045;-74
2023/09/03 14:00:20;;;;;;;3.38;2.38;;;;;;;;;;5004964;28;20378;-73
2023/09/03 14:03:06;;;;;;;5.43;2.97;;;;;;;;;;5001197;28;20454;-75
2023/09/03 14:05:51;;;;;;;4.25;2.58;;;;;;;;;;5017567;28;20026;-76
2023/09/03 14:08:36;;;;;;;4.15;2.47;;;;;;;;;;4998962;28;20033;-74
2023/09/03 14:11:22;;;;;;;2.40;1.40;;;;;;;;;;5036986;28;20354;-75
2023/09/03 14:14:07;;;;;;;3.88;2.65;;;;;;;;;;5005904;28;20120;-68
2023/09/03 14:16:53;;;;;;;2.28;1.50;;;;;;;;;;5008359;28;20529;-69
2023/09/03 14:19:38;;;;;;;2.15;1.50;;;;;;;;;;5009484;28;20108;-69
2023/09/03 14:22:23;;;;;;;2.30;1.50;;;;;;;;;;5036666;28;20026;-68
2023/09/03 14:25:08;;;;;;;2.10;1.50;;;;;;;;;;5003636;28;20030;-68
2023/09/03 14:27:54;;;;;;;2.72;2.00;;;;;;;;;;5016331;28;20041;-74
2023/09/03 14:30:40;;;;;;;4.30;1.90;;;;;;;;;;4996518;28;20033;-71
2023/09/03 14:33:25;;;;;;;5.10;2.45;;;;;;;;;;5021462;28;20049;-72
2023/09/03 14:36:11;;;;;;;4.90;2.33;;;;;;;;;;5014175;28;20053;-71
2023/09/03 14:38:56;;;;;;;2.13;1.63;;;;;;;;;;5007430;28;20042;-71
2023/09/03 14:41:42;;;;;;;2.97;1.77;;;;;;;;;;5034588;28;20037;-70
2023/09/03 14:44:27;;;;;;;3.92;2.22;;;;;;;;;;5008673;28;20033;-71
2023/09/03 14:47:12;;;;;;;3.90;2.80;;;;;;;;;;5035324;28;20447;-73
2023/09/03 14:49:57;;;;;;;2.95;1.38;;;;;;;;;;5004337;28;20038;-71
2023/09/03 14:52:43;;;;;;;4.30;1.67;;;;;;;;;;5034528;28;20412;-71
2023/09/03 14:55:28;;;;;;;2.80;1.50;;;;;;;;;;5007098;28;20058;-71
2023/09/03 14:58:13;;;;;;;1.40;1.30;;;;;;;;;;5005178;28;20044;-71
2023/09/03 15:00:58;;;;;;;2.13;1.60;;;;;;;;;;5030270;28;20449;-73
2023/09/03 15:03:44;;;;;;;2.75;1.35;;;;;;;;;;5028719;28;20064;-71
2023/09/03 15:06:29;;;;;;;3.15;1.75;;;;;;;;;;5024820;28;20615;-71
2023/09/03 15:09:15;;;;;;;14.65;8.30;;;;;;;;;;5011223;28;20029;-76
2023/09/03 15:12:00;;;;;;;3.75;2.00;;;;;;;;;;5005392;28;20022;-74
2023/09/03 15:14:45;;;;;;;5.15;2.53;;;;;;;;;;5003678;28;20105;-75
2023/09/03 15:17:30;;;;;;;2.53;1.73;;;;;;;;;;5003198;28;20038;-75
2023/09/03 15:20:15;;;;;;;3.47;2.03;;;;;;;;;;5003776;28;20053;-75
2023/09/03 15:23:01;;;;;;;3.30;2.10;;;;;;;;;;5005728;28;20112;-70
2023/09/03 15:25:46;;;;;;;2.92;2.08;;;;;;;;;;5034222;28;20033;-74
2023/09/03 15:28:31;;;;;;;3.88;1.85;;;;;;;;;;5018065;28;20030;-75
2023/09/03 15:31:16;;;;;;;5.25;2.28;;;;;;;;;;5010045;28;20116;-74
2023/09/03 15:34:02;;;;;;;2.67;1.48;;;;;;;;;;5004604;28;20100;-74
2023/09/03 15:36:47;;;;;;;1.67;1.52;;;;;;;;;;5006203;28;20026;-75
2023/09/03 15:39:33;;;;;;;3.42;1.48;;;;;;;;;;5008332;28;20065;-73
2023/09/03 15:42:18;;;;;;;1.67;1.58;;;;;;;;;;5027334;28;20084;-71
2023/09/03 15:45:03;;;;;;;3.65;1.65;;;;;;;;;;5004926;28;20058;-68
2023/09/03 15:47:48;;;;;;;1.38;1.17;;;;;;;;;;5017087;28;20157;-68
2023/09/03 15:50:38;;;;;;;2.55;1.40;;;;;;;;;;5005657;28;20065;-69
2023/09/03 15:53:25;;;;;;;3.20;1.20;;;;;;;;;;5003878;28;20069;-68
2023/09/03 15:56:10;;;;;;;2.05;1.33;;;;;;;;;;5017562;28;20133;-71
2023/09/03 15:58:56;;;;;;;2.47;1.42;;;;;;;;;;5024284;28;20053;-69
2023/09/03 16:01:42;;;;;;;2.20;1.35;;;;;;;;;;5001372;28;20045;-68
2023/09/03 16:04:27;;;;;;;2.22;1.65;;;;;;;;;;4999337;28;20080;-74
2023/09/03 16:07:12;;;;;;;2.22;1.58;;;;;;;;;;5039165;28;20033;-73
2023/09/03 16:09:57;;;;;;;2.03;1.30;;;;;;;;;;5000597;28;20033;-73
2023/09/03 16:12:43;;;;;;;3.75;1.85;;;;;;;;;;5008607;28;20249;-74
2023/09/03 16:15:28;;;;;;;4.57;1.83;;;;;;;;;;5023633;28;20051;-73
2023/09/03 16:18:13;;;;;;;2.25;1.50;;;;;;;;;;5027694;28;20030;-74
2023/09/03 16:20:59;;;;;;;2.33;1.33;;;;;;;;;;4984734;28;20504;-70
2023/09/03 16:23:45;;;;;;;3.13;1.40;;;;;;;;;;5002593;28;20061;-69
2023/09/03 16:26:30;;;;;;;3.30;2.35;;;;;;;;;;5034817;28;20033;-68
2023/09/03 16:29:15;;;;;;;18.73;11.75;;;;;;;;;;5010320;28;20165;-71
2023/09/03 16:32:00;;;;;;;8.50;4.00;;;;;;;;;;4990923;28;20106;-69
2023/09/03 16:34:52;;;;;;;5.70;1.73;;;;;;;;;;4998793;28;20394;-69
2023/09/03 16:37:37;;;;;;;4.18;2.25;;;;;;;;;;5009232;28;20033;-73